sensor_id;sensor_type;location;lat;lon;timestamp;P1;durP1;ratioP1;P2;durP2;ratioP2
40044;SDS011;25735;48.122;11.422;2023-03-31T00:00:18;8.00;;;5.50;;
40044;SDS011;25735;48.122;11.422;2023-03-31T00:02:43;8.20;;;4.90;;
40044;SDS011;25735;48.122;11.422;2023-03-31T00:05:10;13.90;;;5.40;;
40044;SDS011;25735;48.122;11.422;2023-03-31T00:07:35;9.50;;;5.63;;
40044;SDS011;25735;48.122;11.422;2023-03-31T00:10:03;7.70;;;5.25;;
40044;SDS011;25735;48.122;11.422;2023-03-31T00:12:28;8.77;;;5.80;;
40044;SDS011;25735;48.122;11.422;2023-03-31T00:14:54;7.95;;;5.15;;
40044;SDS011;25735;48.122;11.422;2023-03-31T00:17:19;6.80;;;4.97;;
40044;SDS011;25735;48.122;11.422;2023-03-31T00:19:44;10.95;;;5.43;;
40044;SDS011;25735;48.122;11.422;2023-03-31T00:22:13;9.50;;;5.72;;
40044;SDS011;25735;48.122;11.422;2023-03-31T00:24:38;8.70;;;5.40;;
40044;SDS011;25735;48.122;11.422;2023-03-31T00:27:04;9.70;;;4.90;;
40044;SDS011;25735;48.122;11.422;2023-03-31T00:29:30;7.03;;;5.00;;
40044;SDS011;25735;48.122;11.422;2023-03-31T00:31:55;6.75;;;5.20;;
40044;SDS011;25735;48.122;11.422;2023-03-31T00:34:20;9.13;;;4.68;;
40044;SDS011;25735;48.122;11.422;2023-03-31T00:36:46;10.02;;;5.60;;
40044;SDS011;25735;48.122;11.422;2023-03-31T00:39:11;13.18;;;5.25;;
40044;SDS011;25735;48.122;11.422;2023-03-31T00:41:37;9.98;;;5.13;;
40044;SDS011;25735;48.122;11.422;2023-03-31T00:47:17;8.25;;;4.72;;
40044;SDS011;25735;48.122;11.422;2023-03-31T00:49:22;6.80;;;4.63;;
40044;SDS011;25735;48.122;11.422;2023-03-31T00:51:49;7.88;;;5.20;;
40044;SDS011;25735;48.122;11.422;2023-03-31T00:54:16;5.95;;;4.85;;
40044;SDS011;25735;48.122;11.422;2023-03-31T00:56:43;8.93;;;5.07;;
40044;SDS011;25735;48.122;11.422;2023-03-31T00:59:11;7.45;;;4.65;;
40044;SDS011;25735;48.122;11.422;2023-03-31T01:01:37;8.50;;;4.80;;
40044;SDS011;25735;48.122;11.422;2023-03-31T01:04:06;6.05;;;4.85;;
40044;SDS011;25735;48.122;11.422;2023-03-31T01:06:33;7.70;;;4.78;;
40044;SDS011;25735;48.122;11.422;2023-03-31T01:09:00;9.30;;;4.75;;
40044;SDS011;25735;48.122;11.422;2023-03-31T01:11:27;10.15;;;4.90;;
40044;SDS011;25735;48.122;11.422;2023-03-31T01:13:54;9.00;;;5.35;;
40044;SDS011;25735;48.122;11.422;2023-03-31T01:16:20;7.22;;;4.75;;
40044;SDS011;25735;48.122;11.422;2023-03-31T01:18:46;8.23;;;4.68;;
40044;SDS011;25735;48.122;11.422;2023-03-31T01:26:36;8.50;;;5.20;;
40044;SDS011;25735;48.122;11.422;2023-03-31T01:29:16;9.90;;;4.63;;
40044;SDS011;25735;48.122;11.422;2023-03-31T01:36:57;6.05;;;4.63;;
40044;SDS011;25735;48.122;11.422;2023-03-31T01:42:11;6.75;;;5.00;;
40044;SDS011;25735;48.122;11.422;2023-03-31T01:47:13;11.77;;;4.70;;
40044;SDS011;25735;48.122;11.422;2023-03-31T01:52:13;8.17;;;5.57;;
40044;SDS011;25735;48.122;11.422;2023-03-31T01:54:45;9.32;;;5.30;;
40044;SDS011;25735;48.122;11.422;2023-03-31T02:00:00;6.85;;;4.75;;
40044;SDS011;25735;48.122;11.422;2023-03-31T02:02:34;8.13;;;5.13;;
40044;SDS011;25735;48.122;11.422;2023-03-31T02:05:05;10.25;;;5.82;;
40044;SDS011;25735;48.122;11.422;2023-03-31T02:08:14;6.97;;;4.88;;
40044;SDS011;25735;48.122;11.422;2023-03-31T02:10:20;11.45;;;5.18;;
40044;SDS011;25735;48.122;11.422;2023-03-31T02:12:46;7.53;;;4.53;;
40044;SDS011;25735;48.122;11.422;2023-03-31T02:15:13;9.30;;;5.65;;
40044;SDS011;25735;48.122;11.422;2023-03-31T02:17:39;7.50;;;4.72;;
40044;SDS011;25735;48.122;11.422;2023-03-31T02:20:10;7.38;;;4.80;;
40044;SDS011;25735;48.122;11.422;2023-03-31T02:22:37;11.30;;;5.50;;
40044;SDS011;25735;48.122;11.422;2023-03-31T02:25:03;9.35;;;4.32;;
40044;SDS011;25735;48.122;11.422;2023-03-31T02:27:30;7.32;;;4.32;;
40044;SDS011;25735;48.122;11.422;2023-03-31T02:29:57;8.07;;;4.45;;
40044;SDS011;25735;48.122;11.422;2023-03-31T02:32:42;5.88;;;4.50;;
40044;SDS011;25735;48.122;11.422;2023-03-31T02:35:09;9.55;;;5.22;;
40044;SDS011;25735;48.122;11.422;2023-03-31T02:37:35;6.45;;;4.70;;
40044;SDS011;25735;48.122;11.422;2023-03-31T02:40:04;9.63;;;4.30;;
40044;SDS011;25735;48.122;11.422;2023-03-31T02:42:30;8.40;;;4.72;;
40044;SDS011;25735;48.122;11.422;2023-03-31T02:45:00;6.22;;;4.30;;
40044;SDS011;25735;48.122;11.422;2023-03-31T02:47:25;9.82;;;4.72;;
40044;SDS011;25735;48.122;11.422;2023-03-31T02:49:52;6.20;;;4.87;;
40044;SDS011;25735;48.122;11.422;2023-03-31T02:55:09;10.18;;;4.82;;
40044;SDS011;25735;48.122;11.422;2023-03-31T02:57:43;10.57;;;5.55;;
40044;SDS011;25735;48.122;11.422;2023-03-31T03:08:24;9.82;;;5.07;;
40044;SDS011;25735;48.122;11.422;2023-03-31T03:13:42;13.10;;;5.18;;
40044;SDS011;25735;48.122;11.422;2023-03-31T03:16:26;7.88;;;5.35;;
40044;SDS011;25735;48.122;11.422;2023-03-31T03:21:21;6.13;;;4.35;;
40044;SDS011;25735;48.122;11.422;2023-03-31T03:23:46;9.33;;;5.13;;
40044;SDS011;25735;48.122;11.422;2023-03-31T03:26:11;11.23;;;5.47;;
40044;SDS011;25735;48.122;11.422;2023-03-31T03:28:36;7.50;;;6.20;;
40044;SDS011;25735;48.122;11.422;2023-03-31T03:31:01;14.13;;;5.77;;
40044;SDS011;25735;48.122;11.422;2023-03-31T03:33:26;10.17;;;5.07;;
40044;SDS011;25735;48.122;11.422;2023-03-31T03:35:52;11.70;;;4.60;;
40044;SDS011;25735;48.122;11.422;2023-03-31T03:38:17;8.80;;;5.13;;
40044;SDS011;25735;48.122;11.422;2023-03-31T03:40:42;11.90;;;6.23;;
40044;SDS011;25735;48.122;11.422;2023-03-31T03:43:07;10.27;;;5.53;;
40044;SDS011;25735;48.122;11.422;2023-03-31T03:45:32;13.35;;;5.78;;
40044;SDS011;25735;48.122;11.422;2023-03-31T03:47:57;8.77;;;5.60;;
40044;SDS011;25735;48.122;11.422;2023-03-31T03:50:23;13.97;;;5.97;;
40044;SDS011;25735;48.122;11.422;2023-03-31T03:52:48;7.27;;;5.40;;
40044;SDS011;25735;48.122;11.422;2023-03-31T03:55:13;9.33;;;5.17;;
40044;SDS011;25735;48.122;11.422;2023-03-31T03:57:38;8.90;;;6.00;;
40044;SDS011;25735;48.122;11.422;2023-03-31T04:00:03;11.45;;;6.25;;
40044;SDS011;25735;48.122;11.422;2023-03-31T04:02:34;9.40;;;6.25;;
40044;SDS011;25735;48.122;11.422;2023-03-31T04:04:59;8.48;;;4.82;;
40044;SDS011;25735;48.122;11.422;2023-03-31T04:07:24;9.40;;;6.13;;
40044;SDS011;25735;48.122;11.422;2023-03-31T04:09:49;9.38;;;5.40;;
40044;SDS011;25735;48.122;11.422;2023-03-31T04:14:42;12.07;;;6.15;;
40044;SDS011;25735;48.122;11.422;2023-03-31T04:17:07;10.68;;;6.07;;
40044;SDS011;25735;48.122;11.422;2023-03-31T04:19:34;8.68;;;6.38;;
40044;SDS011;25735;48.122;11.422;2023-03-31T04:21:59;9.40;;;6.55;;
40044;SDS011;25735;48.122;11.422;2023-03-31T04:24:26;10.90;;;7.18;;
40044;SDS011;25735;48.122;11.422;2023-03-31T04:26:54;9.07;;;6.28;;
40044;SDS011;25735;48.122;11.422;2023-03-31T04:29:20;10.00;;;6.85;;
40044;SDS011;25735;48.122;11.422;2023-03-31T04:31:46;11.75;;;7.55;;
40044;SDS011;25735;48.122;11.422;2023-03-31T04:34:12;12.98;;;7.00;;
40044;SDS011;25735;48.122;11.422;2023-03-31T04:36:39;9.55;;;7.68;;
40044;SDS011;25735;48.122;11.422;2023-03-31T04:39:06;11.68;;;6.70;;
40044;SDS011;25735;48.122;11.422;2023-03-31T04:41:34;10.50;;;7.43;;
40044;SDS011;25735;48.122;11.422;2023-03-31T04:43:59;11.83;;;8.30;;
40044;SDS011;25735;48.122;11.422;2023-03-31T04:46:24;10.88;;;7.55;;
40044;SDS011;25735;48.122;11.422;2023-03-31T04:48:51;12.60;;;7.53;;
40044;SDS011;25735;48.122;11.422;2023-03-31T04:51:17;10.02;;;6.88;;
40044;SDS011;25735;48.122;11.422;2023-03-31T04:53:44;12.23;;;6.95;;
40044;SDS011;25735;48.122;11.422;2023-03-31T04:56:09;10.70;;;7.72;;
40044;SDS011;25735;48.122;11.422;2023-03-31T04:58:34;10.65;;;7.65;;
40044;SDS011;25735;48.122;11.422;2023-03-31T05:01:00;10.27;;;7.57;;
40044;SDS011;25735;48.122;11.422;2023-03-31T05:03:25;10.43;;;7.13;;
40044;SDS011;25735;48.122;11.422;2023-03-31T05:05:50;10.43;;;7.20;;
40044;SDS011;25735;48.122;11.422;2023-03-31T05:08:15;11.03;;;7.70;;
40044;SDS011;25735;48.122;11.422;2023-03-31T05:10:40;8.65;;;7.32;;
40044;SDS011;25735;48.122;11.422;2023-03-31T05:13:07;11.25;;;7.75;;
40044;SDS011;25735;48.122;11.422;2023-03-31T05:15:32;13.23;;;7.90;;
40044;SDS011;25735;48.122;11.422;2023-03-31T05:18:00;10.68;;;7.53;;
40044;SDS011;25735;48.122;11.422;2023-03-31T05:20:26;9.97;;;6.50;;
40044;SDS011;25735;48.122;11.422;2023-03-31T05:22:51;11.90;;;6.57;;
40044;SDS011;25735;48.122;11.422;2023-03-31T05:25:16;8.93;;;6.80;;
40044;SDS011;25735;48.122;11.422;2023-03-31T05:27:45;10.07;;;7.43;;
40044;SDS011;25735;48.122;11.422;2023-03-31T05:30:11;9.38;;;6.43;;
40044;SDS011;25735;48.122;11.422;2023-03-31T05:32:36;7.45;;;6.38;;
40044;SDS011;25735;48.122;11.422;2023-03-31T05:35:02;9.50;;;7.15;;
40044;SDS011;25735;48.122;11.422;2023-03-31T05:37:27;10.00;;;7.03;;
40044;SDS011;25735;48.122;11.422;2023-03-31T05:39:52;10.68;;;6.93;;
40044;SDS011;25735;48.122;11.422;2023-03-31T05:42:17;12.37;;;6.43;;
40044;SDS011;25735;48.122;11.422;2023-03-31T05:44:43;10.20;;;6.40;;
40044;SDS011;25735;48.122;11.422;2023-03-31T05:47:08;9.77;;;6.53;;
40044;SDS011;25735;48.122;11.422;2023-03-31T05:49:33;7.73;;;6.77;;
40044;SDS011;25735;48.122;11.422;2023-03-31T05:51:59;11.20;;;7.17;;
40044;SDS011;25735;48.122;11.422;2023-03-31T05:54:24;12.87;;;6.70;;
40044;SDS011;25735;48.122;11.422;2023-03-31T05:56:49;11.55;;;7.82;;
40044;SDS011;25735;48.122;11.422;2023-03-31T05:59:14;9.60;;;6.57;;
40044;SDS011;25735;48.122;11.422;2023-03-31T06:01:40;9.80;;;7.30;;
40044;SDS011;25735;48.122;11.422;2023-03-31T06:04:05;11.52;;;6.72;;
40044;SDS011;25735;48.122;11.422;2023-03-31T06:06:30;8.43;;;6.30;;
40044;SDS011;25735;48.122;11.422;2023-03-31T06:08:57;9.18;;;6.47;;
40044;SDS011;25735;48.122;11.422;2023-03-31T06:11:22;10.57;;;6.47;;
40044;SDS011;25735;48.122;11.422;2023-03-31T06:13:48;11.10;;;6.83;;
40044;SDS011;25735;48.122;11.422;2023-03-31T06:16:13;10.65;;;6.38;;
40044;SDS011;25735;48.122;11.422;2023-03-31T06:18:39;10.45;;;6.15;;
40044;SDS011;25735;48.122;11.422;2023-03-31T06:21:05;7.75;;;5.80;;
40044;SDS011;25735;48.122;11.422;2023-03-31T06:23:30;9.43;;;6.35;;
40044;SDS011;25735;48.122;11.422;2023-03-31T06:25:59;8.48;;;5.47;;
40044;SDS011;25735;48.122;11.422;2023-03-31T06:28:24;6.45;;;5.63;;
40044;SDS011;25735;48.122;11.422;2023-03-31T06:30:49;9.82;;;5.63;;
40044;SDS011;25735;48.122;11.422;2023-03-31T06:33:15;8.20;;;6.17;;
40044;SDS011;25735;48.122;11.422;2023-03-31T06:35:40;10.77;;;5.97;;
40044;SDS011;25735;48.122;11.422;2023-03-31T06:38:06;15.75;;;6.32;;
40044;SDS011;25735;48.122;11.422;2023-03-31T06:40:31;17.65;;;6.30;;
40044;SDS011;25735;48.122;11.422;2023-03-31T06:42:56;12.23;;;5.95;;
40044;SDS011;25735;48.122;11.422;2023-03-31T06:45:21;10.43;;;6.43;;
40044;SDS011;25735;48.122;11.422;2023-03-31T06:47:46;11.63;;;6.50;;
40044;SDS011;25735;48.122;11.422;2023-03-31T06:50:12;10.47;;;5.83;;
40044;SDS011;25735;48.122;11.422;2023-03-31T06:52:37;9.40;;;6.55;;
40044;SDS011;25735;48.122;11.422;2023-03-31T06:55:04;6.97;;;5.38;;
40044;SDS011;25735;48.122;11.422;2023-03-31T06:57:30;10.18;;;6.25;;
40044;SDS011;25735;48.122;11.422;2023-03-31T06:59:57;6.85;;;5.78;;
40044;SDS011;25735;48.122;11.422;2023-03-31T07:02:23;9.23;;;6.18;;
40044;SDS011;25735;48.122;11.422;2023-03-31T07:04:48;9.48;;;5.20;;
40044;SDS011;25735;48.122;11.422;2023-03-31T07:07:13;10.15;;;5.65;;
40044;SDS011;25735;48.122;11.422;2023-03-31T07:09:38;8.70;;;5.90;;
40044;SDS011;25735;48.122;11.422;2023-03-31T07:12:03;7.63;;;5.90;;
40044;SDS011;25735;48.122;11.422;2023-03-31T07:14:29;9.82;;;5.53;;
40044;SDS011;25735;48.122;11.422;2023-03-31T07:16:54;10.20;;;6.53;;
40044;SDS011;25735;48.122;11.422;2023-03-31T07:19:19;8.82;;;5.53;;
40044;SDS011;25735;48.122;11.422;2023-03-31T07:21:45;10.23;;;6.32;;
40044;SDS011;25735;48.122;11.422;2023-03-31T07:24:10;9.82;;;6.82;;
40044;SDS011;25735;48.122;11.422;2023-03-31T07:26:35;10.37;;;6.33;;
40044;SDS011;25735;48.122;11.422;2023-03-31T07:29:00;9.30;;;6.50;;
40044;SDS011;25735;48.122;11.422;2023-03-31T07:31:25;9.47;;;7.07;;
40044;SDS011;25735;48.122;11.422;2023-03-31T07:33:51;8.00;;;6.45;;
40044;SDS011;25735;48.122;11.422;2023-03-31T07:36:16;9.07;;;6.18;;
40044;SDS011;25735;48.122;11.422;2023-03-31T07:38:41;8.03;;;5.80;;
40044;SDS011;25735;48.122;11.422;2023-03-31T07:41:10;10.88;;;6.53;;
40044;SDS011;25735;48.122;11.422;2023-03-31T07:43:36;10.43;;;6.15;;
40044;SDS011;25735;48.122;11.422;2023-03-31T07:46:01;11.15;;;6.82;;
40044;SDS011;25735;48.122;11.422;2023-03-31T07:48:26;10.57;;;6.47;;
40044;SDS011;25735;48.122;11.422;2023-03-31T07:50:53;11.65;;;6.47;;
40044;SDS011;25735;48.122;11.422;2023-03-31T07:53:18;11.00;;;7.07;;
40044;SDS011;25735;48.122;11.422;2023-03-31T07:55:43;9.60;;;6.35;;
40044;SDS011;25735;48.122;11.422;2023-03-31T07:58:08;11.75;;;7.25;;
40044;SDS011;25735;48.122;11.422;2023-03-31T08:00:35;14.55;;;7.13;;
40044;SDS011;25735;48.122;11.422;2023-03-31T08:03:00;9.20;;;6.77;;
40044;SDS011;25735;48.122;11.422;2023-03-31T08:05:26;10.53;;;6.63;;
40044;SDS011;25735;48.122;11.422;2023-03-31T08:07:51;8.25;;;6.20;;
40044;SDS011;25735;48.122;11.422;2023-03-31T08:10:21;11.63;;;7.32;;
40044;SDS011;25735;48.122;11.422;2023-03-31T08:12:46;9.68;;;7.30;;
40044;SDS011;25735;48.122;11.422;2023-03-31T08:15:11;12.30;;;6.85;;
40044;SDS011;25735;48.122;11.422;2023-03-31T08:17:37;11.50;;;6.70;;
40044;SDS011;25735;48.122;11.422;2023-03-31T08:20:02;10.60;;;7.32;;
40044;SDS011;25735;48.122;11.422;2023-03-31T08:22:30;8.50;;;6.65;;
40044;SDS011;25735;48.122;11.422;2023-03-31T08:24:55;9.50;;;6.90;;
40044;SDS011;25735;48.122;11.422;2023-03-31T08:27:20;11.30;;;6.50;;
40044;SDS011;25735;48.122;11.422;2023-03-31T08:29:46;7.37;;;5.67;;
40044;SDS011;25735;48.122;11.422;2023-03-31T08:32:11;8.50;;;5.60;;
40044;SDS011;25735;48.122;11.422;2023-03-31T08:34:36;7.33;;;5.40;;
40044;SDS011;25735;48.122;11.422;2023-03-31T08:37:02;9.95;;;5.00;;
40044;SDS011;25735;48.122;11.422;2023-03-31T08:39:27;9.90;;;6.17;;
40044;SDS011;25735;48.122;11.422;2023-03-31T08:44:34;7.05;;;5.03;;
40044;SDS011;25735;48.122;11.422;2023-03-31T08:47:00;6.95;;;4.70;;
40044;SDS011;25735;48.122;11.422;2023-03-31T08:49:27;4.95;;;4.07;;
40044;SDS011;25735;48.122;11.422;2023-03-31T08:51:57;9.63;;;4.18;;
40044;SDS011;25735;48.122;11.422;2023-03-31T08:56:48;5.93;;;3.60;;
40044;SDS011;25735;48.122;11.422;2023-03-31T08:59:35;7.20;;;3.90;;
40044;SDS011;25735;48.122;11.422;2023-03-31T09:02:09;7.63;;;3.67;;
40044;SDS011;25735;48.122;11.422;2023-03-31T09:09:45;4.05;;;3.35;;
40044;SDS011;25735;48.122;11.422;2023-03-31T09:12:15;5.90;;;3.72;;
40044;SDS011;25735;48.122;11.422;2023-03-31T09:14:45;4.43;;;3.50;;
40044;SDS011;25735;48.122;11.422;2023-03-31T09:17:19;3.60;;;2.80;;
40044;SDS011;25735;48.122;11.422;2023-03-31T09:19:52;6.47;;;3.78;;
40044;SDS011;25735;48.122;11.422;2023-03-31T09:22:21;5.03;;;2.80;;
40044;SDS011;25735;48.122;11.422;2023-03-31T09:24:49;6.00;;;2.95;;
40044;SDS011;25735;48.122;11.422;2023-03-31T09:27:15;4.85;;;3.03;;
40044;SDS011;25735;48.122;11.422;2023-03-31T09:29:42;6.20;;;2.40;;
40044;SDS011;25735;48.122;11.422;2023-03-31T09:32:16;3.47;;;2.30;;
40044;SDS011;25735;48.122;11.422;2023-03-31T09:34:42;4.65;;;2.65;;
40044;SDS011;25735;48.122;11.422;2023-03-31T09:37:09;4.30;;;2.30;;
40044;SDS011;25735;48.122;11.422;2023-03-31T09:39:34;2.72;;;2.00;;
40044;SDS011;25735;48.122;11.422;2023-03-31T09:42:00;2.90;;;1.70;;
40044;SDS011;25735;48.122;11.422;2023-03-31T09:44:36;3.20;;;1.77;;
40044;SDS011;25735;48.122;11.422;2023-03-31T09:47:01;4.65;;;2.20;;
40044;SDS011;25735;48.122;11.422;2023-03-31T09:49:28;3.70;;;2.08;;
40044;SDS011;25735;48.122;11.422;2023-03-31T09:52:05;2.58;;;1.88;;
40044;SDS011;25735;48.122;11.422;2023-03-31T09:54:33;3.13;;;1.98;;
40044;SDS011;25735;48.122;11.422;2023-03-31T09:57:00;3.42;;;2.40;;
40044;SDS011;25735;48.122;11.422;2023-03-31T09:59:30;4.78;;;2.10;;
40044;SDS011;25735;48.122;11.422;2023-03-31T10:01:56;3.55;;;2.65;;
40044;SDS011;25735;48.122;11.422;2023-03-31T10:04:24;3.38;;;2.03;;
40044;SDS011;25735;48.122;11.422;2023-03-31T10:06:49;2.72;;;2.20;;
40044;SDS011;25735;48.122;11.422;2023-03-31T10:09:16;4.80;;;1.98;;
40044;SDS011;25735;48.122;11.422;2023-03-31T10:11:53;3.13;;;1.98;;
40044;SDS011;25735;48.122;11.422;2023-03-31T10:14:23;3.60;;;2.20;;
40044;SDS011;25735;48.122;11.422;2023-03-31T10:16:50;4.03;;;2.20;;
40044;SDS011;25735;48.122;11.422;2023-03-31T10:19:21;4.63;;;2.30;;
40044;SDS011;25735;48.122;11.422;2023-03-31T10:21:47;9.50;;;2.05;;
40044;SDS011;25735;48.122;11.422;2023-03-31T10:24:16;3.33;;;2.17;;
40044;SDS011;25735;48.122;11.422;2023-03-31T10:26:42;3.50;;;1.90;;
40044;SDS011;25735;48.122;11.422;2023-03-31T10:29:11;3.92;;;2.33;;
40044;SDS011;25735;48.122;11.422;2023-03-31T10:31:37;3.83;;;2.20;;
40044;SDS011;25735;48.122;11.422;2023-03-31T10:34:06;4.38;;;2.22;;
40044;SDS011;25735;48.122;11.422;2023-03-31T10:36:32;3.67;;;2.70;;
40044;SDS011;25735;48.122;11.422;2023-03-31T10:38:59;4.47;;;2.35;;
40044;SDS011;25735;48.122;11.422;2023-03-31T10:41:28;5.43;;;2.83;;
40044;SDS011;25735;48.122;11.422;2023-03-31T10:43:55;3.13;;;2.58;;
40044;SDS011;25735;48.122;11.422;2023-03-31T10:46:20;4.65;;;2.55;;
40044;SDS011;25735;48.122;11.422;2023-03-31T10:49:07;3.80;;;2.85;;
40044;SDS011;25735;48.122;11.422;2023-03-31T10:51:37;3.70;;;2.28;;
40044;SDS011;25735;48.122;11.422;2023-03-31T10:54:12;4.40;;;3.13;;
40044;SDS011;25735;48.122;11.422;2023-03-31T11:01:58;4.68;;;2.63;;
40044;SDS011;25735;48.122;11.422;2023-03-31T11:07:05;4.40;;;2.78;;
40044;SDS011;25735;48.122;11.422;2023-03-31T11:09:43;4.93;;;3.13;;
40044;SDS011;25735;48.122;11.422;2023-03-31T11:12:16;5.90;;;3.42;;
40044;SDS011;25735;48.122;11.422;2023-03-31T11:17:15;6.50;;;2.93;;
40044;SDS011;25735;48.122;11.422;2023-03-31T11:20:17;5.68;;;2.25;;
40044;SDS011;25735;48.122;11.422;2023-03-31T11:22:53;7.88;;;2.05;;
40044;SDS011;25735;48.122;11.422;2023-03-31T11:25:25;8.05;;;1.50;;
40044;SDS011;25735;48.122;11.422;2023-03-31T11:28:02;4.18;;;1.23;;
40044;SDS011;25735;48.122;11.422;2023-03-31T11:30:39;3.22;;;1.10;;
40044;SDS011;25735;48.122;11.422;2023-03-31T11:38:17;1.80;;;1.65;;
40044;SDS011;25735;48.122;11.422;2023-03-31T11:48:53;2.38;;;1.05;;
40044;SDS011;25735;48.122;11.422;2023-03-31T11:53:50;1.83;;;1.42;;
40044;SDS011;25735;48.122;11.422;2023-03-31T11:56:16;2.40;;;1.00;;
40044;SDS011;25735;48.122;11.422;2023-03-31T11:58:44;3.25;;;1.10;;
40044;SDS011;25735;48.122;11.422;2023-03-31T12:06:19;2.28;;;1.30;;
40044;SDS011;25735;48.122;11.422;2023-03-31T12:09:01;2.90;;;1.33;;
40044;SDS011;25735;48.122;11.422;2023-03-31T12:11:34;1.75;;;1.35;;
40044;SDS011;25735;48.122;11.422;2023-03-31T12:16:59;0.90;;;0.80;;
40044;SDS011;25735;48.122;11.422;2023-03-31T12:19:32;1.23;;;1.08;;
40044;SDS011;25735;48.122;11.422;2023-03-31T12:22:03;4.28;;;1.23;;
40044;SDS011;25735;48.122;11.422;2023-03-31T12:24:29;2.47;;;1.42;;
40044;SDS011;25735;48.122;11.422;2023-03-31T12:29:27;2.53;;;1.65;;
40044;SDS011;25735;48.122;11.422;2023-03-31T12:34:18;2.63;;;1.10;;
40044;SDS011;25735;48.122;11.422;2023-03-31T12:53:32;2.47;;;1.40;;
40044;SDS011;25735;48.122;11.422;2023-03-31T13:05:58;4.53;;;1.00;;
40044;SDS011;25735;48.122;11.422;2023-03-31T13:11:07;3.10;;;1.40;;
40044;SDS011;25735;48.122;11.422;2023-03-31T13:13:33;4.10;;;1.10;;
40044;SDS011;25735;48.122;11.422;2023-03-31T13:15:58;1.60;;;1.17;;
40044;SDS011;25735;48.122;11.422;2023-03-31T13:18:25;2.65;;;1.23;;
40044;SDS011;25735;48.122;11.422;2023-03-31T13:21:00;7.20;;;1.10;;
40044;SDS011;25735;48.122;11.422;2023-03-31T13:23:28;2.75;;;0.63;;
40044;SDS011;25735;48.122;11.422;2023-03-31T13:25:55;1.38;;;0.60;;
40044;SDS011;25735;48.122;11.422;2023-03-31T13:30:52;3.42;;;0.80;;
40044;SDS011;25735;48.122;11.422;2023-03-31T13:33:25;3.20;;;0.63;;
40044;SDS011;25735;48.122;11.422;2023-03-31T13:36:06;1.38;;;0.50;;
40044;SDS011;25735;48.122;11.422;2023-03-31T13:41:29;1.60;;;0.60;;
40044;SDS011;25735;48.122;11.422;2023-03-31T13:57:08;1.10;;;0.45;;
40044;SDS011;25735;48.122;11.422;2023-03-31T14:02:36;1.20;;;0.50;;
40044;SDS011;25735;48.122;11.422;2023-03-31T14:05:10;4.22;;;0.95;;
40044;SDS011;25735;48.122;11.422;2023-03-31T14:07:43;1.83;;;0.88;;
40044;SDS011;25735;48.122;11.422;2023-03-31T14:12:35;2.03;;;0.90;;
40044;SDS011;25735;48.122;11.422;2023-03-31T14:15:01;0.82;;;0.63;;
40044;SDS011;25735;48.122;11.422;2023-03-31T14:17:30;3.30;;;1.00;;
40044;SDS011;25735;48.122;11.422;2023-03-31T14:22:42;5.25;;;1.58;;
40044;SDS011;25735;48.122;11.422;2023-03-31T14:25:12;2.83;;;0.82;;
40044;SDS011;25735;48.122;11.422;2023-03-31T14:38:32;1.10;;;0.60;;
40044;SDS011;25735;48.122;11.422;2023-03-31T14:40:57;1.50;;;0.80;;
40044;SDS011;25735;48.122;11.422;2023-03-31T14:43:26;1.15;;;0.50;;
40044;SDS011;25735;48.122;11.422;2023-03-31T14:45:59;1.20;;;0.57;;
40044;SDS011;25735;48.122;11.422;2023-03-31T14:48:25;0.60;;;0.30;;
40044;SDS011;25735;48.122;11.422;2023-03-31T14:50:55;1.88;;;0.47;;
40044;SDS011;25735;48.122;11.422;2023-03-31T14:53:22;2.40;;;1.15;;
40044;SDS011;25735;48.122;11.422;2023-03-31T14:55:47;1.25;;;0.60;;
40044;SDS011;25735;48.122;11.422;2023-03-31T14:58:13;0.73;;;0.50;;
40044;SDS011;25735;48.122;11.422;2023-03-31T15:00:39;1.48;;;0.60;;
40044;SDS011;25735;48.122;11.422;2023-03-31T15:03:06;1.25;;;0.70;;
40044;SDS011;25735;48.122;11.422;2023-03-31T15:05:33;1.80;;;0.63;;
40044;SDS011;25735;48.122;11.422;2023-03-31T15:08:04;1.52;;;0.60;;
40044;SDS011;25735;48.122;11.422;2023-03-31T15:10:32;2.47;;;0.70;;
40044;SDS011;25735;48.122;11.422;2023-03-31T15:13:00;0.73;;;0.45;;
40044;SDS011;25735;48.122;11.422;2023-03-31T15:15:25;1.33;;;0.90;;
40044;SDS011;25735;48.122;11.422;2023-03-31T15:17:50;2.08;;;0.70;;
40044;SDS011;25735;48.122;11.422;2023-03-31T15:22:51;0.95;;;0.63;;
40044;SDS011;25735;48.122;11.422;2023-03-31T15:25:17;1.42;;;0.90;;
40044;SDS011;25735;48.122;11.422;2023-03-31T15:27:44;1.95;;;0.93;;
40044;SDS011;25735;48.122;11.422;2023-03-31T15:30:15;1.42;;;0.70;;
40044;SDS011;25735;48.122;11.422;2023-03-31T15:32:41;3.58;;;0.82;;
40044;SDS011;25735;48.122;11.422;2023-03-31T15:35:06;1.65;;;0.40;;
40044;SDS011;25735;48.122;11.422;2023-03-31T15:37:42;3.13;;;0.70;;
40044;SDS011;25735;48.122;11.422;2023-03-31T15:40:30;2.28;;;0.80;;
40044;SDS011;25735;48.122;11.422;2023-03-31T15:43:13;1.58;;;0.68;;
40044;SDS011;25735;48.122;11.422;2023-03-31T15:45:49;0.80;;;0.68;;
40044;SDS011;25735;48.122;11.422;2023-03-31T15:48:27;2.35;;;1.40;;
40044;SDS011;25735;48.122;11.422;2023-03-31T15:50:57;3.05;;;1.05;;
40044;SDS011;25735;48.122;11.422;2023-03-31T15:53:24;3.20;;;0.75;;
40044;SDS011;25735;48.122;11.422;2023-03-31T15:55:52;0.80;;;0.40;;
40044;SDS011;25735;48.122;11.422;2023-03-31T15:58:17;1.00;;;0.70;;
40044;SDS011;25735;48.122;11.422;2023-03-31T16:00:43;3.80;;;0.70;;
40044;SDS011;25735;48.122;11.422;2023-03-31T16:03:18;1.75;;;0.38;;
40044;SDS011;25735;48.122;11.422;2023-03-31T16:05:49;4.15;;;1.48;;
40044;SDS011;25735;48.122;11.422;2023-03-31T16:08:18;1.25;;;0.70;;
40044;SDS011;25735;48.122;11.422;2023-03-31T16:10:45;2.05;;;0.98;;
40044;SDS011;25735;48.122;11.422;2023-03-31T16:13:11;1.92;;;1.00;;
40044;SDS011;25735;48.122;11.422;2023-03-31T16:15:41;3.78;;;0.95;;
40044;SDS011;25735;48.122;11.422;2023-03-31T16:18:13;2.35;;;0.98;;
40044;SDS011;25735;48.122;11.422;2023-03-31T16:20:40;5.30;;;1.10;;
40044;SDS011;25735;48.122;11.422;2023-03-31T16:23:13;1.73;;;0.88;;
40044;SDS011;25735;48.122;11.422;2023-03-31T16:25:39;4.80;;;1.13;;
40044;SDS011;25735;48.122;11.422;2023-03-31T16:28:05;3.67;;;1.13;;
40044;SDS011;25735;48.122;11.422;2023-03-31T16:30:33;2.90;;;1.10;;
40044;SDS011;25735;48.122;11.422;2023-03-31T16:33:11;2.50;;;1.30;;
40044;SDS011;25735;48.122;11.422;2023-03-31T16:35:37;2.05;;;1.25;;
40044;SDS011;25735;48.122;11.422;2023-03-31T16:38:04;2.20;;;1.15;;
40044;SDS011;25735;48.122;11.422;2023-03-31T16:40:30;1.85;;;0.90;;
40044;SDS011;25735;48.122;11.422;2023-03-31T16:45:43;1.63;;;0.90;;
40044;SDS011;25735;48.122;11.422;2023-03-31T16:48:08;2.70;;;0.95;;
40044;SDS011;25735;48.122;11.422;2023-03-31T16:50:34;2.13;;;1.02;;
40044;SDS011;25735;48.122;11.422;2023-03-31T16:52:59;1.60;;;0.65;;
40044;SDS011;25735;48.122;11.422;2023-03-31T16:55:24;1.92;;;0.45;;
40044;SDS011;25735;48.122;11.422;2023-03-31T16:57:50;1.75;;;0.28;;
40044;SDS011;25735;48.122;11.422;2023-03-31T17:00:15;1.00;;;0.43;;
40044;SDS011;25735;48.122;11.422;2023-03-31T17:02:40;0.52;;;0.20;;
40044;SDS011;25735;48.122;11.422;2023-03-31T17:05:06;1.95;;;0.38;;
40044;SDS011;25735;48.122;11.422;2023-03-31T17:07:31;1.90;;;0.50;;
40044;SDS011;25735;48.122;11.422;2023-03-31T17:09:57;1.80;;;0.50;;
40044;SDS011;25735;48.122;11.422;2023-03-31T17:12:22;1.45;;;0.30;;
40044;SDS011;25735;48.122;11.422;2023-03-31T17:14:47;0.65;;;0.20;;
40044;SDS011;25735;48.122;11.422;2023-03-31T17:17:12;0.63;;;0.40;;